sensor_id;sensor_type;location;lat;lon;timestamp;P1;durP1;ratioP1;P2;durP2;ratioP2
84852;SDS011;75109;47.440;19.310;2024-01-16T00:00:13;8.60;;;8.60;;
84852;SDS011;75109;47.440;19.310;2024-01-16T00:00:46;8.30;;;8.23;;
84852;SDS011;75109;47.440;19.310;2024-01-16T00:01:18;8.33;;;8.33;;
84852;SDS011;75109;47.440;19.310;2024-01-16T00:01:51;8.37;;;8.37;;
84852;SDS011;75109;47.440;19.310;2024-01-16T00:02:23;8.47;;;8.47;;
84852;SDS011;75109;47.440;19.310;2024-01-16T00:02:55;8.90;;;8.90;;
84852;SDS011;75109;47.440;19.310;2024-01-16T00:03:27;8.97;;;8.97;;
84852;SDS011;75109;47.440;19.310;2024-01-16T00:03:59;8.53;;;8.53;;
84852;SDS011;75109;47.440;19.310;2024-01-16T00:04:31;9.20;;;9.20;;
84852;SDS011;75109;47.440;19.310;2024-01-16T00:05:04;8.03;;;8.03;;
84852;SDS011;75109;47.440;19.310;2024-01-16T00:05:36;8.77;;;8.77;;
84852;SDS011;75109;47.440;19.310;2024-01-16T00:06:08;8.13;;;8.13;;
84852;SDS011;75109;47.440;19.310;2024-01-16T00:06:40;8.90;;;8.90;;
84852;SDS011;75109;47.440;19.310;2024-01-16T00:07:14;9.27;;;9.27;;
84852;SDS011;75109;47.440;19.310;2024-01-16T00:07:47;9.27;;;9.27;;
84852;SDS011;75109;47.440;19.310;2024-01-16T00:08:19;8.23;;;8.23;;
84852;SDS011;75109;47.440;19.310;2024-01-16T00:08:51;8.53;;;8.53;;
84852;SDS011;75109;47.440;19.310;2024-01-16T00:09:23;9.13;;;9.13;;
84852;SDS011;75109;47.440;19.310;2024-01-16T00:09:55;8.73;;;8.73;;
84852;SDS011;75109;47.440;19.310;2024-01-16T00:10:27;9.43;;;9.43;;
84852;SDS011;75109;47.440;19.310;2024-01-16T00:11:01;9.07;;;9.07;;
84852;SDS011;75109;47.440;19.310;2024-01-16T00:11:33;9.10;;;9.10;;
84852;SDS011;75109;47.440;19.310;2024-01-16T00:12:05;8.67;;;8.67;;
84852;SDS011;75109;47.440;19.310;2024-01-16T00:12:38;8.50;;;8.50;;
84852;SDS011;75109;47.440;19.310;2024-01-16T00:13:11;8.03;;;8.03;;
84852;SDS011;75109;47.440;19.310;2024-01-16T00:13:44;8.70;;;8.70;;
84852;SDS011;75109;47.440;19.310;2024-01-16T00:14:16;8.50;;;8.50;;
84852;SDS011;75109;47.440;19.310;2024-01-16T00:14:48;8.27;;;8.27;;
84852;SDS011;75109;47.440;19.310;2024-01-16T00:15:20;8.90;;;8.90;;
84852;SDS011;75109;47.440;19.310;2024-01-16T00:15:52;8.73;;;8.73;;
84852;SDS011;75109;47.440;19.310;2024-01-16T00:16:24;8.60;;;8.60;;
84852;SDS011;75109;47.440;19.310;2024-01-16T00:16:56;8.90;;;8.90;;
84852;SDS011;75109;47.440;19.310;2024-01-16T00:17:28;8.27;;;8.27;;
84852;SDS011;75109;47.440;19.310;2024-01-16T00:18:00;8.67;;;8.53;;
84852;SDS011;75109;47.440;19.310;2024-01-16T00:18:32;9.07;;;9.07;;
84852;SDS011;75109;47.440;19.310;2024-01-16T00:19:04;8.73;;;8.73;;
84852;SDS011;75109;47.440;19.310;2024-01-16T00:19:37;8.70;;;8.70;;
84852;SDS011;75109;47.440;19.310;2024-01-16T00:20:10;8.50;;;8.50;;
84852;SDS011;75109;47.440;19.310;2024-01-16T00:20:42;8.00;;;8.00;;
84852;SDS011;75109;47.440;19.310;2024-01-16T00:21:14;8.17;;;8.17;;
84852;SDS011;75109;47.440;19.310;2024-01-16T00:21:47;7.97;;;7.97;;
84852;SDS011;75109;47.440;19.310;2024-01-16T00:22:19;8.53;;;8.53;;
84852;SDS011;75109;47.440;19.310;2024-01-16T00:22:52;9.17;;;9.17;;
84852;SDS011;75109;47.440;19.310;2024-01-16T00:23:24;9.13;;;9.13;;
84852;SDS011;75109;47.440;19.310;2024-01-16T00:23:57;8.37;;;8.37;;
84852;SDS011;75109;47.440;19.310;2024-01-16T00:24:29;7.93;;;7.93;;
84852;SDS011;75109;47.440;19.310;2024-01-16T00:25:01;8.20;;;8.20;;
84852;SDS011;75109;47.440;19.310;2024-01-16T00:25:34;8.13;;;8.13;;
84852;SDS011;75109;47.440;19.310;2024-01-16T00:26:06;8.10;;;8.10;;
84852;SDS011;75109;47.440;19.310;2024-01-16T00:26:38;8.17;;;8.17;;
84852;SDS011;75109;47.440;19.310;2024-01-16T00:27:10;7.70;;;7.70;;
84852;SDS011;75109;47.440;19.310;2024-01-16T00:27:42;6.63;;;6.63;;
84852;SDS011;75109;47.440;19.310;2024-01-16T00:28:14;7.37;;;7.37;;
84852;SDS011;75109;47.440;19.310;2024-01-16T00:28:46;7.80;;;7.80;;
84852;SDS011;75109;47.440;19.310;2024-01-16T00:29:18;7.60;;;7.60;;
84852;SDS011;75109;47.440;19.310;2024-01-16T00:29:50;7.63;;;7.63;;
84852;SDS011;75109;47.440;19.310;2024-01-16T00:30:22;7.90;;;7.90;;
84852;SDS011;75109;47.440;19.310;2024-01-16T00:30:54;8.20;;;8.20;;
84852;SDS011;75109;47.440;19.310;2024-01-16T00:31:26;7.90;;;7.90;;
84852;SDS011;75109;47.440;19.310;2024-01-16T00:31:58;7.63;;;7.63;;
84852;SDS011;75109;47.440;19.310;2024-01-16T00:32:30;8.33;;;8.33;;
84852;SDS011;75109;47.440;19.310;2024-01-16T00:33:02;7.47;;;7.47;;
84852;SDS011;75109;47.440;19.310;2024-01-16T00:33:35;7.47;;;7.47;;
84852;SDS011;75109;47.440;19.310;2024-01-16T00:34:07;7.87;;;7.87;;
84852;SDS011;75109;47.440;19.310;2024-01-16T00:34:39;8.40;;;8.40;;
84852;SDS011;75109;47.440;19.310;2024-01-16T00:35:13;7.77;;;7.77;;
84852;SDS011;75109;47.440;19.310;2024-01-16T00:35:45;6.93;;;6.93;;
84852;SDS011;75109;47.440;19.310;2024-01-16T00:36:17;7.03;;;7.03;;
84852;SDS011;75109;47.440;19.310;2024-01-16T00:36:49;7.30;;;7.30;;
84852;SDS011;75109;47.440;19.310;2024-01-16T00:37:21;8.07;;;7.97;;
84852;SDS011;75109;47.440;19.310;2024-01-16T00:37:55;8.50;;;8.47;;
84852;SDS011;75109;47.440;19.310;2024-01-16T00:38:27;7.97;;;7.97;;
84852;SDS011;75109;47.440;19.310;2024-01-16T00:38:59;7.93;;;7.90;;
84852;SDS011;75109;47.440;19.310;2024-01-16T00:39:31;7.87;;;7.73;;
84852;SDS011;75109;47.440;19.310;2024-01-16T00:40:03;8.43;;;8.33;;
84852;SDS011;75109;47.440;19.310;2024-01-16T00:40:36;7.73;;;7.73;;
84852;SDS011;75109;47.440;19.310;2024-01-16T00:41:08;9.13;;;9.13;;
84852;SDS011;75109;47.440;19.310;2024-01-16T00:41:40;8.40;;;8.40;;
84852;SDS011;75109;47.440;19.310;2024-01-16T00:42:12;7.77;;;7.77;;
84852;SDS011;75109;47.440;19.310;2024-01-16T00:42:44;8.43;;;8.43;;
84852;SDS011;75109;47.440;19.310;2024-01-16T00:43:16;8.33;;;8.33;;
84852;SDS011;75109;47.440;19.310;2024-01-16T00:43:48;8.23;;;8.23;;
84852;SDS011;75109;47.440;19.310;2024-01-16T00:44:20;8.33;;;8.33;;
84852;SDS011;75109;47.440;19.310;2024-01-16T00:44:52;9.07;;;9.07;;
84852;SDS011;75109;47.440;19.310;2024-01-16T00:45:24;9.10;;;9.10;;
84852;SDS011;75109;47.440;19.310;2024-01-16T00:45:56;9.07;;;9.07;;
84852;SDS011;75109;47.440;19.310;2024-01-16T00:46:28;8.83;;;8.83;;
84852;SDS011;75109;47.440;19.310;2024-01-16T00:47:00;8.37;;;8.37;;
84852;SDS011;75109;47.440;19.310;2024-01-16T00:47:33;8.53;;;8.53;;
84852;SDS011;75109;47.440;19.310;2024-01-16T00:48:05;9.07;;;9.07;;
84852;SDS011;75109;47.440;19.310;2024-01-16T00:48:37;8.80;;;8.77;;
84852;SDS011;75109;47.440;19.310;2024-01-16T00:49:10;9.53;;;9.53;;
84852;SDS011;75109;47.440;19.310;2024-01-16T00:49:42;9.57;;;9.57;;
84852;SDS011;75109;47.440;19.310;2024-01-16T00:50:14;9.23;;;9.20;;
84852;SDS011;75109;47.440;19.310;2024-01-16T00:50:46;9.73;;;9.73;;
84852;SDS011;75109;47.440;19.310;2024-01-16T00:51:20;9.60;;;9.60;;
84852;SDS011;75109;47.440;19.310;2024-01-16T00:51:52;9.40;;;9.40;;
84852;SDS011;75109;47.440;19.310;2024-01-16T00:52:24;9.13;;;9.13;;
84852;SDS011;75109;47.440;19.310;2024-01-16T00:52:58;8.67;;;8.67;;
84852;SDS011;75109;47.440;19.310;2024-01-16T00:53:30;9.20;;;9.20;;
84852;SDS011;75109;47.440;19.310;2024-01-16T00:54:02;9.33;;;9.33;;
84852;SDS011;75109;47.440;19.310;2024-01-16T00:54:34;9.60;;;9.53;;
84852;SDS011;75109;47.440;19.310;2024-01-16T00:55:06;9.93;;;9.83;;
84852;SDS011;75109;47.440;19.310;2024-01-16T00:55:39;9.73;;;9.47;;
84852;SDS011;75109;47.440;19.310;2024-01-16T00:56:11;9.77;;;9.63;;
84852;SDS011;75109;47.440;19.310;2024-01-16T00:56:44;9.20;;;9.03;;
84852;SDS011;75109;47.440;19.310;2024-01-16T00:57:16;9.33;;;9.33;;
84852;SDS011;75109;47.440;19.310;2024-01-16T00:57:51;8.83;;;8.70;;
84852;SDS011;75109;47.440;19.310;2024-01-16T00:58:23;9.13;;;8.87;;
84852;SDS011;75109;47.440;19.310;2024-01-16T00:58:56;9.13;;;8.83;;
84852;SDS011;75109;47.440;19.310;2024-01-16T00:59:28;8.90;;;8.80;;
84852;SDS011;75109;47.440;19.310;2024-01-16T01:00:00;9.40;;;9.40;;
84852;SDS011;75109;47.440;19.310;2024-01-16T01:00:32;9.93;;;9.87;;
84852;SDS011;75109;47.440;19.310;2024-01-16T01:01:05;9.77;;;9.50;;
84852;SDS011;75109;47.440;19.310;2024-01-16T01:01:37;10.03;;;9.67;;
84852;SDS011;75109;47.440;19.310;2024-01-16T01:02:09;9.43;;;9.03;;
84852;SDS011;75109;47.440;19.310;2024-01-16T01:02:43;9.30;;;8.87;;
84852;SDS011;75109;47.440;19.310;2024-01-16T01:03:15;10.07;;;9.67;;
84852;SDS011;75109;47.440;19.310;2024-01-16T01:03:47;9.33;;;8.97;;
84852;SDS011;75109;47.440;19.310;2024-01-16T01:04:19;9.77;;;9.37;;
84852;SDS011;75109;47.440;19.310;2024-01-16T01:04:51;10.17;;;9.73;;
84852;SDS011;75109;47.440;19.310;2024-01-16T01:05:23;10.50;;;10.07;;
84852;SDS011;75109;47.440;19.310;2024-01-16T01:05:59;9.67;;;9.20;;
84852;SDS011;75109;47.440;19.310;2024-01-16T01:06:31;9.90;;;9.50;;
84852;SDS011;75109;47.440;19.310;2024-01-16T01:07:04;9.50;;;9.47;;
84852;SDS011;75109;47.440;19.310;2024-01-16T01:07:36;9.53;;;9.53;;
84852;SDS011;75109;47.440;19.310;2024-01-16T01:08:09;9.10;;;9.10;;
84852;SDS011;75109;47.440;19.310;2024-01-16T01:08:41;10.03;;;9.80;;
84852;SDS011;75109;47.440;19.310;2024-01-16T01:09:13;10.40;;;10.03;;
84852;SDS011;75109;47.440;19.310;2024-01-16T01:09:45;9.93;;;9.53;;
84852;SDS011;75109;47.440;19.310;2024-01-16T01:10:17;9.63;;;9.23;;
84852;SDS011;75109;47.440;19.310;2024-01-16T01:10:49;9.70;;;9.40;;
84852;SDS011;75109;47.440;19.310;2024-01-16T01:11:21;8.73;;;8.67;;
84852;SDS011;75109;47.440;19.310;2024-01-16T01:11:53;9.60;;;9.40;;
84852;SDS011;75109;47.440;19.310;2024-01-16T01:12:25;9.53;;;9.27;;
84852;SDS011;75109;47.440;19.310;2024-01-16T01:12:57;9.30;;;9.27;;
84852;SDS011;75109;47.440;19.310;2024-01-16T01:13:29;9.47;;;9.43;;
84852;SDS011;75109;47.440;19.310;2024-01-16T01:14:01;9.17;;;9.17;;
84852;SDS011;75109;47.440;19.310;2024-01-16T01:14:33;8.97;;;8.97;;
84852;SDS011;75109;47.440;19.310;2024-01-16T01:15:06;9.53;;;9.53;;
84852;SDS011;75109;47.440;19.310;2024-01-16T01:15:39;9.30;;;9.30;;
84852;SDS011;75109;47.440;19.310;2024-01-16T01:16:11;9.80;;;9.80;;
84852;SDS011;75109;47.440;19.310;2024-01-16T01:16:43;9.27;;;9.27;;
84852;SDS011;75109;47.440;19.310;2024-01-16T01:17:15;9.73;;;9.63;;
84852;SDS011;75109;47.440;19.310;2024-01-16T01:17:48;10.20;;;9.97;;
84852;SDS011;75109;47.440;19.310;2024-01-16T01:18:20;9.27;;;9.17;;
84852;SDS011;75109;47.440;19.310;2024-01-16T01:18:54;9.13;;;9.07;;
84852;SDS011;75109;47.440;19.310;2024-01-16T01:19:26;9.77;;;9.57;;
84852;SDS011;75109;47.440;19.310;2024-01-16T01:19:58;9.10;;;9.07;;
84852;SDS011;75109;47.440;19.310;2024-01-16T01:20:30;9.60;;;9.60;;
84852;SDS011;75109;47.440;19.310;2024-01-16T01:21:02;9.63;;;9.60;;
84852;SDS011;75109;47.440;19.310;2024-01-16T01:21:35;9.67;;;9.63;;
84852;SDS011;75109;47.440;19.310;2024-01-16T01:22:07;9.53;;;9.50;;
84852;SDS011;75109;47.440;19.310;2024-01-16T01:22:39;9.20;;;9.13;;
84852;SDS011;75109;47.440;19.310;2024-01-16T01:23:13;9.70;;;9.43;;
84852;SDS011;75109;47.440;19.310;2024-01-16T01:23:45;9.67;;;9.43;;
84852;SDS011;75109;47.440;19.310;2024-01-16T01:24:17;9.60;;;9.20;;
84852;SDS011;75109;47.440;19.310;2024-01-16T01:24:49;9.57;;;9.23;;
84852;SDS011;75109;47.440;19.310;2024-01-16T01:25:21;10.00;;;9.67;;
84852;SDS011;75109;47.440;19.310;2024-01-16T01:25:53;9.97;;;9.93;;
84852;SDS011;75109;47.440;19.310;2024-01-16T01:26:25;10.03;;;10.03;;
84852;SDS011;75109;47.440;19.310;2024-01-16T01:26:57;9.77;;;9.77;;
84852;SDS011;75109;47.440;19.310;2024-01-16T01:27:29;8.53;;;8.50;;
84852;SDS011;75109;47.440;19.310;2024-01-16T01:28:01;9.33;;;9.23;;
84852;SDS011;75109;47.440;19.310;2024-01-16T01:28:33;8.90;;;8.90;;
84852;SDS011;75109;47.440;19.310;2024-01-16T01:29:05;8.90;;;8.90;;
84852;SDS011;75109;47.440;19.310;2024-01-16T01:29:37;8.77;;;8.73;;
84852;SDS011;75109;47.440;19.310;2024-01-16T01:30:10;9.27;;;9.13;;
84852;SDS011;75109;47.440;19.310;2024-01-16T01:30:42;9.27;;;9.23;;
84852;SDS011;75109;47.440;19.310;2024-01-16T01:31:14;8.73;;;8.63;;
84852;SDS011;75109;47.440;19.310;2024-01-16T01:31:46;8.47;;;8.30;;
84852;SDS011;75109;47.440;19.310;2024-01-16T01:32:21;9.57;;;9.57;;
84852;SDS011;75109;47.440;19.310;2024-01-16T01:32:53;9.07;;;9.03;;
84852;SDS011;75109;47.440;19.310;2024-01-16T01:33:25;8.27;;;8.27;;
84852;SDS011;75109;47.440;19.310;2024-01-16T01:33:57;8.17;;;8.17;;
84852;SDS011;75109;47.440;19.310;2024-01-16T01:34:29;8.93;;;8.87;;
84852;SDS011;75109;47.440;19.310;2024-01-16T01:35:01;8.53;;;8.43;;
84852;SDS011;75109;47.440;19.310;2024-01-16T01:35:34;8.00;;;7.83;;
84852;SDS011;75109;47.440;19.310;2024-01-16T01:36:06;8.33;;;8.10;;
84852;SDS011;75109;47.440;19.310;2024-01-16T01:36:38;9.13;;;8.83;;
84852;SDS011;75109;47.440;19.310;2024-01-16T01:37:10;8.83;;;8.47;;
84852;SDS011;75109;47.440;19.310;2024-01-16T01:37:42;8.50;;;8.17;;
84852;SDS011;75109;47.440;19.310;2024-01-16T01:38:16;8.73;;;8.37;;
84852;SDS011;75109;47.440;19.310;2024-01-16T01:38:50;8.00;;;7.70;;
84852;SDS011;75109;47.440;19.310;2024-01-16T01:39:22;8.50;;;8.20;;
84852;SDS011;75109;47.440;19.310;2024-01-16T01:39:55;7.83;;;7.60;;
84852;SDS011;75109;47.440;19.310;2024-01-16T01:40:27;7.63;;;7.63;;
84852;SDS011;75109;47.440;19.310;2024-01-16T01:40:59;7.90;;;7.90;;
84852;SDS011;75109;47.440;19.310;2024-01-16T01:41:31;7.20;;;7.20;;
84852;SDS011;75109;47.440;19.310;2024-01-16T01:42:03;6.97;;;6.97;;
84852;SDS011;75109;47.440;19.310;2024-01-16T01:42:35;7.40;;;7.40;;
84852;SDS011;75109;47.440;19.310;2024-01-16T01:43:17;7.07;;;7.07;;
84852;SDS011;75109;47.440;19.310;2024-01-16T01:43:51;6.73;;;6.73;;
84852;SDS011;75109;47.440;19.310;2024-01-16T01:44:23;6.37;;;6.37;;
84852;SDS011;75109;47.440;19.310;2024-01-16T01:44:56;6.67;;;6.67;;
84852;SDS011;75109;47.440;19.310;2024-01-16T01:45:28;7.27;;;7.27;;
84852;SDS011;75109;47.440;19.310;2024-01-16T01:46:08;6.87;;;6.87;;
84852;SDS011;75109;47.440;19.310;2024-01-16T01:46:41;7.03;;;7.03;;
84852;SDS011;75109;47.440;19.310;2024-01-16T01:47:14;6.73;;;6.73;;
84852;SDS011;75109;47.440;19.310;2024-01-16T01:47:47;6.17;;;6.17;;
84852;SDS011;75109;47.440;19.310;2024-01-16T01:48:19;6.60;;;6.60;;
84852;SDS011;75109;47.440;19.310;2024-01-16T01:48:51;6.57;;;6.57;;
84852;SDS011;75109;47.440;19.310;2024-01-16T01:49:23;6.60;;;6.60;;
84852;SDS011;75109;47.440;19.310;2024-01-16T01:49:57;6.47;;;6.47;;
84852;SDS011;75109;47.440;19.310;2024-01-16T01:50:29;6.83;;;6.83;;
84852;SDS011;75109;47.440;19.310;2024-01-16T01:51:01;6.83;;;6.83;;
84852;SDS011;75109;47.440;19.310;2024-01-16T01:51:34;6.80;;;6.80;;
84852;SDS011;75109;47.440;19.310;2024-01-16T01:52:06;6.17;;;6.17;;
84852;SDS011;75109;47.440;19.310;2024-01-16T01:52:40;6.30;;;6.30;;
84852;SDS011;75109;47.440;19.310;2024-01-16T01:53:13;6.63;;;6.63;;
84852;SDS011;75109;47.440;19.310;2024-01-16T01:53:47;6.07;;;6.07;;
84852;SDS011;75109;47.440;19.310;2024-01-16T01:54:22;6.23;;;6.23;;
84852;SDS011;75109;47.440;19.310;2024-01-16T01:54:55;6.93;;;6.90;;
84852;SDS011;75109;47.440;19.310;2024-01-16T01:55:27;6.83;;;6.70;;
84852;SDS011;75109;47.440;19.310;2024-01-16T01:56:00;6.27;;;6.17;;
84852;SDS011;75109;47.440;19.310;2024-01-16T01:56:37;6.53;;;6.30;;
84852;SDS011;75109;47.440;19.310;2024-01-16T01:57:09;6.17;;;6.17;;
84852;SDS011;75109;47.440;19.310;2024-01-16T01:57:41;6.47;;;6.47;;
84852;SDS011;75109;47.440;19.310;2024-01-16T01:58:14;6.17;;;6.17;;
84852;SDS011;75109;47.440;19.310;2024-01-16T01:58:47;6.37;;;6.37;;
84852;SDS011;75109;47.440;19.310;2024-01-16T01:59:24;6.40;;;6.40;;
84852;SDS011;75109;47.440;19.310;2024-01-16T01:59:57;6.27;;;6.27;;
84852;SDS011;75109;47.440;19.310;2024-01-16T02:00:29;6.33;;;6.33;;
84852;SDS011;75109;47.440;19.310;2024-01-16T02:01:02;6.63;;;6.63;;
84852;SDS011;75109;47.440;19.310;2024-01-16T02:01:35;5.97;;;5.97;;
84852;SDS011;75109;47.440;19.310;2024-01-16T02:02:07;5.83;;;5.83;;
84852;SDS011;75109;47.440;19.310;2024-01-16T02:02:39;6.10;;;6.10;;
84852;SDS011;75109;47.440;19.310;2024-01-16T02:03:13;6.03;;;6.03;;
84852;SDS011;75109;47.440;19.310;2024-01-16T02:03:45;6.77;;;6.77;;
84852;SDS011;75109;47.440;19.310;2024-01-16T02:04:19;6.53;;;6.53;;
84852;SDS011;75109;47.440;19.310;2024-01-16T02:04:51;6.40;;;6.40;;
84852;SDS011;75109;47.440;19.310;2024-01-16T02:05:24;6.77;;;6.77;;
84852;SDS011;75109;47.440;19.310;2024-01-16T02:05:56;6.27;;;6.27;;
84852;SDS011;75109;47.440;19.310;2024-01-16T02:06:28;6.17;;;6.17;;
84852;SDS011;75109;47.440;19.310;2024-01-16T02:07:00;6.33;;;6.33;;
84852;SDS011;75109;47.440;19.310;2024-01-16T02:07:33;6.77;;;6.73;;
84852;SDS011;75109;47.440;19.310;2024-01-16T02:08:06;6.60;;;6.60;;
84852;SDS011;75109;47.440;19.310;2024-01-16T02:08:38;6.60;;;6.60;;
84852;SDS011;75109;47.440;19.310;2024-01-16T02:09:12;6.97;;;6.97;;
84852;SDS011;75109;47.440;19.310;2024-01-16T02:09:44;6.57;;;6.57;;
84852;SDS011;75109;47.440;19.310;2024-01-16T02:10:17;7.03;;;7.03;;
84852;SDS011;75109;47.440;19.310;2024-01-16T02:10:49;6.87;;;6.87;;
84852;SDS011;75109;47.440;19.310;2024-01-16T02:11:22;6.80;;;6.80;;
84852;SDS011;75109;47.440;19.310;2024-01-16T02:11:54;7.10;;;7.10;;
84852;SDS011;75109;47.440;19.310;2024-01-16T02:12:26;6.70;;;6.70;;
84852;SDS011;75109;47.440;19.310;2024-01-16T02:12:58;6.87;;;6.87;;
84852;SDS011;75109;47.440;19.310;2024-01-16T02:13:30;6.67;;;6.67;;
84852;SDS011;75109;47.440;19.310;2024-01-16T02:14:02;6.77;;;6.77;;
84852;SDS011;75109;47.440;19.310;2024-01-16T02:14:34;6.53;;;6.53;;
84852;SDS011;75109;47.440;19.310;2024-01-16T02:15:06;6.20;;;6.20;;
84852;SDS011;75109;47.440;19.310;2024-01-16T02:15:39;6.57;;;6.57;;
84852;SDS011;75109;47.440;19.310;2024-01-16T02:16:18;6.37;;;6.37;;
84852;SDS011;75109;47.440;19.310;2024-01-16T02:16:51;6.50;;;6.50;;
84852;SDS011;75109;47.440;19.310;2024-01-16T02:17:23;6.53;;;6.53;;
84852;SDS011;75109;47.440;19.310;2024-01-16T02:17:56;6.27;;;6.27;;
84852;SDS011;75109;47.440;19.310;2024-01-16T02:18:29;6.13;;;6.13;;
84852;SDS011;75109;47.440;19.310;2024-01-16T02:19:01;6.93;;;6.93;;
84852;SDS011;75109;47.440;19.310;2024-01-16T02:19:33;6.93;;;6.93;;
84852;SDS011;75109;47.440;19.310;2024-01-16T02:20:06;6.77;;;6.77;;
84852;SDS011;75109;47.440;19.310;2024-01-16T02:20:38;6.73;;;6.73;;
84852;SDS011;75109;47.440;19.310;2024-01-16T02:21:11;6.87;;;6.87;;
84852;SDS011;75109;47.440;19.310;2024-01-16T02:21:48;6.37;;;6.37;;
84852;SDS011;75109;47.440;19.310;2024-01-16T02:22:21;6.13;;;6.13;;
84852;SDS011;75109;47.440;19.310;2024-01-16T02:22:58;6.27;;;6.27;;
84852;SDS011;75109;47.440;19.310;2024-01-16T02:23:36;6.17;;;6.17;;
84852;SDS011;75109;47.440;19.310;2024-01-16T02:24:09;6.27;;;6.27;;
84852;SDS011;75109;47.440;19.310;2024-01-16T02:24:43;6.13;;;6.13;;
84852;SDS011;75109;47.440;19.310;2024-01-16T02:25:16;6.57;;;6.57;;
84852;SDS011;75109;47.440;19.310;2024-01-16T02:25:48;6.70;;;6.70;;
84852;SDS011;75109;47.440;19.310;2024-01-16T02:26:20;6.93;;;6.93;;
84852;SDS011;75109;47.440;19.310;2024-01-16T02:26:53;7.00;;;7.00;;
84852;SDS011;75109;47.440;19.310;2024-01-16T02:27:25;6.77;;;6.77;;
84852;SDS011;75109;47.440;19.310;2024-01-16T02:27:57;6.33;;;6.33;;
84852;SDS011;75109;47.440;19.310;2024-01-16T02:28:30;6.03;;;6.03;;
84852;SDS011;75109;47.440;19.310;2024-01-16T02:29:03;6.37;;;6.37;;
84852;SDS011;75109;47.440;19.310;2024-01-16T02:29:40;6.20;;;6.20;;
84852;SDS011;75109;47.440;19.310;2024-01-16T02:30:12;6.10;;;6.10;;
84852;SDS011;75109;47.440;19.310;2024-01-16T02:30:44;5.97;;;5.97;;
84852;SDS011;75109;47.440;19.310;2024-01-16T02:31:16;6.60;;;6.60;;
84852;SDS011;75109;47.440;19.310;2024-01-16T02:31:48;6.23;;;6.23;;
84852;SDS011;75109;47.440;19.310;2024-01-16T02:32:20;6.57;;;6.57;;
84852;SDS011;75109;47.440;19.310;2024-01-16T02:32:52;6.27;;;6.27;;
84852;SDS011;75109;47.440;19.310;2024-01-16T02:33:24;5.90;;;5.90;;
84852;SDS011;75109;47.440;19.310;2024-01-16T02:33:57;5.73;;;5.73;;
84852;SDS011;75109;47.440;19.310;2024-01-16T02:34:29;5.40;;;5.40;;
84852;SDS011;75109;47.440;19.310;2024-01-16T02:35:01;5.83;;;5.83;;
84852;SDS011;75109;47.440;19.310;2024-01-16T02:35:35;6.23;;;6.23;;
84852;SDS011;75109;47.440;19.310;2024-01-16T02:36:07;6.20;;;6.20;;
84852;SDS011;75109;47.440;19.310;2024-01-16T02:36:39;6.07;;;6.07;;
84852;SDS011;75109;47.440;19.310;2024-01-16T02:37:11;6.30;;;6.30;;
84852;SDS011;75109;47.440;19.310;2024-01-16T02:37:43;6.30;;;6.30;;
84852;SDS011;75109;47.440;19.310;2024-01-16T02:38:15;6.63;;;6.63;;
84852;SDS011;75109;47.440;19.310;2024-01-16T02:38:49;6.43;;;6.43;;
84852;SDS011;75109;47.440;19.310;2024-01-16T02:39:21;5.50;;;5.50;;
84852;SDS011;75109;47.440;19.310;2024-01-16T02:39:53;5.97;;;5.97;;
84852;SDS011;75109;47.440;19.310;2024-01-16T02:40:25;5.93;;;5.93;;
84852;SDS011;75109;47.440;19.310;2024-01-16T02:40:57;6.43;;;6.43;;
84852;SDS011;75109;47.440;19.310;2024-01-16T02:41:29;5.73;;;5.73;;
84852;SDS011;75109;47.440;19.310;2024-01-16T02:42:01;6.30;;;6.30;;
84852;SDS011;75109;47.440;19.310;2024-01-16T02:42:33;5.97;;;5.97;;
84852;SDS011;75109;47.440;19.310;2024-01-16T02:43:05;6.20;;;6.20;;
84852;SDS011;75109;47.440;19.310;2024-01-16T02:43:37;6.43;;;6.43;;
84852;SDS011;75109;47.440;19.310;2024-01-16T02:44:09;6.40;;;6.40;;
84852;SDS011;75109;47.440;19.310;2024-01-16T02:44:41;6.23;;;6.23;;
84852;SDS011;75109;47.440;19.310;2024-01-16T02:45:13;6.07;;;6.07;;
84852;SDS011;75109;47.440;19.310;2024-01-16T02:45:45;6.03;;;6.03;;
84852;SDS011;75109;47.440;19.310;2024-01-16T02:46:17;6.83;;;6.83;;
84852;SDS011;75109;47.440;19.310;2024-01-16T02:46:50;5.77;;;5.77;;
84852;SDS011;75109;47.440;19.310;2024-01-16T02:47:22;6.50;;;6.50;;
84852;SDS011;75109;47.440;19.310;2024-01-16T02:47:54;6.17;;;6.17;;
84852;SDS011;75109;47.440;19.310;2024-01-16T02:48:26;6.37;;;6.37;;
84852;SDS011;75109;47.440;19.310;2024-01-16T02:48:58;6.17;;;6.17;;
84852;SDS011;75109;47.440;19.310;2024-01-16T02:49:30;6.30;;;6.30;;
84852;SDS011;75109;47.440;19.310;2024-01-16T02:50:04;5.97;;;5.97;;
84852;SDS011;75109;47.440;19.310;2024-01-16T02:50:37;6.10;;;6.10;;
84852;SDS011;75109;47.440;19.310;2024-01-16T02:51:10;5.83;;;5.83;;
84852;SDS011;75109;47.440;19.310;2024-01-16T02:51:42;6.07;;;6.07;;
84852;SDS011;75109;47.440;19.310;2024-01-16T02:52:14;6.23;;;6.23;;
84852;SDS011;75109;47.440;19.310;2024-01-16T02:52:47;5.50;;;5.50;;
84852;SDS011;75109;47.440;19.310;2024-01-16T02:53:19;5.77;;;5.77;;
84852;SDS011;75109;47.440;19.310;2024-01-16T02:53:53;6.20;;;6.20;;
84852;SDS011;75109;47.440;19.310;2024-01-16T02:54:25;6.07;;;6.07;;
84852;SDS011;75109;47.440;19.310;2024-01-16T02:54:57;5.90;;;5.90;;
84852;SDS011;75109;47.440;19.310;2024-01-16T02:55:29;6.10;;;6.10;;
84852;SDS011;75109;47.440;19.310;2024-01-16T02:56:01;6.03;;;6.03;;
84852;SDS011;75109;47.440;19.310;2024-01-16T02:56:33;5.73;;;5.73;;
84852;SDS011;75109;47.440;19.310;2024-01-16T02:57:06;6.07;;;6.07;;
84852;SDS011;75109;47.440;19.310;2024-01-16T02:57:38;5.87;;;5.87;;
84852;SDS011;75109;47.440;19.310;2024-01-16T02:58:10;5.10;;;5.10;;
84852;SDS011;75109;47.440;19.310;2024-01-16T02:58:42;5.73;;;5.73;;
84852;SDS011;75109;47.440;19.310;2024-01-16T02:59:14;5.97;;;5.97;;
84852;SDS011;75109;47.440;19.310;2024-01-16T02:59:47;5.77;;;5.77;;
84852;SDS011;75109;47.440;19.310;2024-01-16T03:00:19;6.40;;;6.40;;
84852;SDS011;75109;47.440;19.310;2024-01-16T03:00:51;6.07;;;6.03;;
84852;SDS011;75109;47.440;19.310;2024-01-16T03:01:24;6.30;;;6.23;;
84852;SDS011;75109;47.440;19.310;2024-01-16T03:01:56;6.97;;;6.70;;
84852;SDS011;75109;47.440;19.310;2024-01-16T03:02:28;6.57;;;6.27;;
84852;SDS011;75109;47.440;19.310;2024-01-16T03:03:01;6.80;;;6.50;;
84852;SDS011;75109;47.440;19.310;2024-01-16T03:03:33;6.40;;;6.13;;
84852;SDS011;75109;47.440;19.310;2024-01-16T03:04:05;6.93;;;6.70;;
84852;SDS011;75109;47.440;19.310;2024-01-16T03:04:37;6.20;;;6.17;;
84852;SDS011;75109;47.440;19.310;2024-01-16T03:05:09;6.87;;;6.87;;
84852;SDS011;75109;47.440;19.310;2024-01-16T03:05:42;7.03;;;7.03;;
84852;SDS011;75109;47.440;19.310;2024-01-16T03:06:21;6.60;;;6.60;;
84852;SDS011;75109;47.440;19.310;2024-01-16T03:06:53;6.60;;;6.60;;
84852;SDS011;75109;47.440;19.310;2024-01-16T03:07:26;6.50;;;6.50;;
84852;SDS011;75109;47.440;19.310;2024-01-16T03:07:58;6.40;;;6.40;;
84852;SDS011;75109;47.440;19.310;2024-01-16T03:08:30;6.43;;;6.43;;
84852;SDS011;75109;47.440;19.310;2024-01-16T03:09:03;6.27;;;6.27;;
84852;SDS011;75109;47.440;19.310;2024-01-16T03:09:35;6.43;;;6.43;;
84852;SDS011;75109;47.440;19.310;2024-01-16T03:10:08;6.10;;;6.10;;
84852;SDS011;75109;47.440;19.310;2024-01-16T03:10:40;7.03;;;7.03;;
84852;SDS011;75109;47.440;19.310;2024-01-16T03:11:12;6.83;;;6.83;;
84852;SDS011;75109;47.440;19.310;2024-01-16T03:11:45;6.80;;;6.80;;
84852;SDS011;75109;47.440;19.310;2024-01-16T03:12:16;7.07;;;7.07;;
84852;SDS011;75109;47.440;19.310;2024-01-16T03:12:48;7.07;;;7.07;;